createdAt,value
2023-02-04T00:00:42.706Z,97224.41
2023-02-04T00:01:44.577Z,97245.22
2023-02-04T00:02:46.541Z,97210.84
2023-02-04T00:03:48.578Z,97185.03
2023-02-04T00:04:50.396Z,97191.97
2023-02-04T00:05:52.506Z,97213.56
2023-02-04T00:06:54.387Z,97215.34
2023-02-04T00:07:56.361Z,97189.38
2023-02-04T00:08:58.446Z,97185.16
2023-02-04T00:10:00.346Z,97203.44
2023-02-04T00:11:02.277Z,97196.34
2023-02-04T00:12:04.213Z,97199.06
2023-02-04T00:13:06.149Z,97217.13
2023-02-04T00:14:07.993Z,97224.75
2023-02-04T00:15:11.074Z,97199.56
2023-02-04T00:16:13.154Z,97201.31
2023-02-04T00:17:15.191Z,97186.94
2023-02-04T00:18:17.063Z,97181.63
2023-02-04T00:19:18.920Z,97206.66
2023-02-04T00:20:20.969Z,97190.19
2023-02-04T00:21:22.837Z,97180.00
2023-02-04T00:22:26.754Z,97194.56
2023-02-04T00:23:28.691Z,97221.19
2023-02-04T00:24:31.172Z,97198.09
2023-02-04T00:25:33.188Z,97192.78
2023-02-04T00:26:35.109Z,97208.59
2023-02-04T00:27:36.993Z,97206.97
2023-02-04T00:28:38.894Z,97124.47
2023-02-04T00:29:40.754Z,97176.78
2023-02-04T00:30:42.774Z,97195.69
2023-02-04T00:31:44.756Z,97173.38
2023-02-04T00:32:46.789Z,97191.16
2023-02-04T00:33:48.717Z,97161.63
2023-02-04T00:34:50.644Z,97176.97
2023-02-04T00:35:52.610Z,97164.06
2023-02-04T00:36:54.513Z,97150.19
2023-02-04T00:37:56.520Z,97200.22
2023-02-04T00:38:58.371Z,97183.09
2023-02-04T00:40:00.222Z,97187.97
2023-02-04T00:41:02.140Z,97201.81
2023-02-04T00:42:06.049Z,97195.88
2023-02-04T00:43:07.985Z,97187.31
2023-02-04T00:44:09.903Z,97170.84
2023-02-04T00:45:12.181Z,97204.41
2023-02-04T00:46:14.024Z,97206.84
2023-02-04T00:47:15.994Z,97221.41
2023-02-04T00:48:17.953Z,97220.06
2023-02-04T00:49:19.773Z,97245.09
2023-02-04T00:50:21.620Z,97248.31
2023-02-04T00:51:23.610Z,97242.88
2023-02-04T00:52:25.469Z,97228.16
2023-02-04T00:53:27.436Z,97224.13
2023-02-04T00:54:29.420Z,97226.72
2023-02-04T00:55:31.277Z,97181.97
2023-02-04T00:56:33.945Z,97129.84
2023-02-04T00:57:35.848Z,97222.72
2023-02-04T00:58:37.935Z,97234.81
2023-02-04T00:59:39.772Z,97206.25
2023-02-04T01:00:41.661Z,97214.16
2023-02-04T01:01:43.947Z,97233.22
2023-02-04T01:02:45.894Z,97253.38
2023-02-04T01:03:47.906Z,97250.13
2023-02-04T01:04:49.703Z,97235.78
2023-02-04T01:05:51.604Z,97240.63
2023-02-04T01:06:53.439Z,97198.47
2023-02-04T01:07:55.284Z,97231.09
2023-02-04T01:08:57.225Z,97242.25
2023-02-04T01:09:59.169Z,97243.69
2023-02-04T01:11:00.993Z,97226.75
2023-02-04T01:12:02.900Z,97234.78
2023-02-04T01:13:04.845Z,97213.31
2023-02-04T01:14:06.764Z,97241.44
2023-02-04T01:15:08.866Z,97255.16
2023-02-04T01:16:10.999Z,97259.34
2023-02-04T01:17:12.952Z,97199.00
2023-02-04T01:18:14.811Z,97183.00
2023-02-04T01:19:16.679Z,97215.78
2023-02-04T01:20:18.602Z,97258.59
2023-02-04T01:21:20.417Z,97285.06
2023-02-04T01:22:22.347Z,97232.28
2023-02-04T01:23:24.316Z,97243.91
2023-02-04T01:24:26.189Z,97240.38
2023-02-04T01:25:28.076Z,97230.72
2023-02-04T01:26:29.983Z,97207.44
2023-02-04T01:27:31.912Z,97212.63
2023-02-04T01:28:33.781Z,97220.53
2023-02-04T01:29:35.614Z,97205.34
2023-02-04T01:30:37.629Z,97250.06
2023-02-04T01:31:39.663Z,97246.69
2023-02-04T01:32:41.650Z,97233.59
2023-02-04T01:33:43.535Z,97217.13
2023-02-04T01:34:45.382Z,97210.19
2023-02-04T01:35:47.360Z,97211.81
2023-02-04T01:36:49.327Z,97230.56
2023-02-04T01:37:51.213Z,97208.41
2023-02-04T01:38:53.121Z,97196.47
2023-02-04T01:39:54.947Z,97219.06
2023-02-04T01:40:57.620Z,97215.50
2023-02-04T01:42:01.254Z,97223.25
2023-02-04T01:43:03.313Z,97217.13
2023-02-04T01:44:05.352Z,97235.22
2023-02-04T01:45:07.903Z,97245.56
2023-02-04T01:46:09.889Z,97252.97
2023-02-04T01:47:11.807Z,97237.19
2023-02-04T01:48:20.623Z,97208.75
2023-02-04T01:49:22.765Z,97199.38
2023-02-04T01:50:24.737Z,97236.81
2023-02-04T01:51:28.772Z,97292.06
2023-02-04T01:52:32.530Z,97196.78
2023-02-04T01:53:35.129Z,97234.97
2023-02-04T01:54:37.049Z,97199.13
2023-02-04T01:55:38.963Z,97262.94
2023-02-04T01:56:42.645Z,97255.34
2023-02-04T01:57:45.061Z,97251.16
2023-02-04T01:58:47.382Z,97207.84
2023-02-04T01:59:49.815Z,97232.09
2023-02-04T02:00:52.108Z,97218.22
2023-02-04T02:01:54.735Z,97214.16
2023-02-04T02:02:56.630Z,97196.88
2023-02-04T02:03:58.523Z,97197.16
2023-02-04T02:05:00.434Z,97224.00
2023-02-04T02:06:02.489Z,97232.69
2023-02-04T02:07:06.001Z,97224.13
2023-02-04T02:08:08.563Z,97182.94
2023-02-04T02:09:10.473Z,97209.75
2023-02-04T02:10:13.165Z,97207.63
2023-02-04T02:11:15.131Z,97169.34
2023-02-04T02:12:16.983Z,97179.97
2023-02-04T02:13:19.639Z,97193.06
2023-02-04T02:14:21.893Z,97240.38
2023-02-04T02:15:25.126Z,97272.06
2023-02-04T02:16:27.469Z,97212.47
2023-02-04T02:17:29.411Z,97222.59
2023-02-04T02:18:31.227Z,97245.38
2023-02-04T02:19:37.029Z,97268.44
2023-02-04T02:20:39.198Z,97290.91
2023-02-04T02:21:45.677Z,97219.53
2023-02-04T02:22:51.887Z,97265.53
2023-02-04T02:23:55.528Z,97242.56
2023-02-04T02:24:57.394Z,97219.50
2023-02-04T02:25:59.276Z,97220.44
2023-02-04T02:27:03.669Z,97228.53
2023-02-04T02:28:07.829Z,97280.34
2023-02-04T02:29:09.682Z,97273.53
2023-02-04T02:30:12.728Z,97284.19
2023-02-04T02:31:15.603Z,97270.28
2023-02-04T02:32:17.813Z,97261.59
2023-02-04T02:33:20.614Z,97222.38
2023-02-04T02:34:22.525Z,97193.31
2023-02-04T02:35:24.502Z,97277.28
2023-02-04T02:36:26.405Z,97271.81
2023-02-04T02:37:28.475Z,97274.09
2023-02-04T02:38:30.317Z,97295.72
2023-02-04T02:39:32.791Z,97300.72
2023-02-04T02:40:34.818Z,97271.50
2023-02-04T02:41:36.841Z,97283.75
2023-02-04T02:42:39.031Z,97282.16
2023-02-04T02:43:40.946Z,97259.06
2023-02-04T02:44:43.492Z,97260.97
2023-02-04T02:45:45.952Z,97179.75
2023-02-04T02:46:47.923Z,97224.47
2023-02-04T02:47:50.342Z,97256.09
2023-02-04T02:48:52.290Z,97229.19
2023-02-04T02:49:55.125Z,97255.00
2023-02-04T02:50:57.085Z,97279.72
2023-02-04T02:51:59.059Z,97305.25
2023-02-04T02:53:01.712Z,97330.41
2023-02-04T02:54:03.565Z,97255.66
2023-02-04T02:55:05.600Z,97269.38
2023-02-04T02:56:11.302Z,97279.72
2023-02-04T02:57:14.897Z,97246.13
2023-02-04T02:58:20.910Z,97252.44
2023-02-04T02:59:23.234Z,97309.09
2023-02-04T03:00:29.254Z,97299.59
2023-02-04T03:01:31.709Z,97287.47
2023-02-04T03:02:33.556Z,97257.41
2023-02-04T03:03:50.337Z,97227.25
2023-02-04T03:04:55.809Z,97347.69
2023-02-04T03:06:08.745Z,97312.19
2023-02-04T03:07:12.000Z,97303.63
2023-02-04T03:08:15.586Z,97335.94
2023-02-04T03:09:17.810Z,97322.28
2023-02-04T03:10:19.715Z,97296.91
2023-02-04T03:11:22.848Z,97293.53
2023-02-04T03:12:24.661Z,97309.34
2023-02-04T03:13:26.940Z,97265.56
2023-02-04T03:14:29.706Z,97249.41
2023-02-04T03:15:32.197Z,97261.03
2023-02-04T03:16:34.864Z,97314.47
2023-02-04T03:17:36.728Z,97272.97
2023-02-04T03:18:39.169Z,97289.13
2023-02-04T03:19:41.349Z,97269.09
2023-02-04T03:20:43.830Z,97267.34
2023-02-04T03:21:46.042Z,97268.44
2023-02-04T03:22:47.853Z,97297.72
2023-02-04T03:23:49.868Z,97269.56
2023-02-04T03:24:51.894Z,97254.59
2023-02-04T03:25:54.409Z,97288.81
2023-02-04T03:26:56.309Z,97278.13
2023-02-04T03:27:59.002Z,97324.81
2023-02-04T03:29:01.205Z,97313.97
2023-02-04T03:30:03.206Z,97305.25
2023-02-04T03:31:05.236Z,97299.25
2023-02-04T03:32:07.194Z,97279.72
2023-02-04T03:33:09.430Z,97292.78
2023-02-04T03:34:11.323Z,97281.50
2023-02-04T03:35:13.346Z,97299.72
2023-02-04T03:36:15.701Z,97332.50
2023-02-04T03:37:17.561Z,97307.34
2023-02-04T03:38:20.034Z,97316.84
2023-02-04T03:39:22.001Z,97324.91
2023-02-04T03:40:23.926Z,97282.13
2023-02-04T03:41:25.806Z,97264.19
2023-02-04T03:42:27.603Z,97290.66
2023-02-04T03:43:29.549Z,97293.09
2023-02-04T03:44:31.380Z,97305.19
2023-02-04T03:45:44.667Z,97296.63
2023-02-04T03:46:47.414Z,97336.34
2023-02-04T03:47:49.228Z,97290.00
2023-02-04T03:48:51.095Z,97260.28
2023-02-04T03:49:52.993Z,97270.63
2023-02-04T03:50:54.813Z,97273.19
2023-02-04T03:51:56.786Z,97294.53
2023-02-04T03:52:58.648Z,97301.94
2023-02-04T03:54:00.508Z,97334.06
2023-02-04T03:55:02.337Z,97277.72
2023-02-04T03:56:04.312Z,97276.72
2023-02-04T03:57:06.317Z,97361.34
2023-02-04T03:58:08.405Z,97262.91
2023-02-04T03:59:10.354Z,97264.69
2023-02-04T04:00:12.660Z,97314.44
2023-02-04T04:01:14.601Z,97315.09
2023-02-04T04:02:16.567Z,97256.31
2023-02-04T04:03:18.465Z,97252.75
2023-02-04T04:04:20.351Z,97242.56
2023-02-04T04:05:22.283Z,97282.44
2023-02-04T04:06:24.256Z,97307.63
2023-02-04T04:07:26.141Z,97292.59
2023-02-04T04:08:27.971Z,97309.22
2023-02-04T04:09:29.904Z,97288.56
2023-02-04T04:10:32.158Z,97313.03
2023-02-04T04:11:34.227Z,97327.22
2023-02-04T04:12:36.156Z,97304.28
2023-02-04T04:13:38.125Z,97280.53
2023-02-04T04:14:40.024Z,97308.28
2023-02-04T04:15:41.835Z,97297.94
2023-02-04T04:16:43.742Z,97324.28
2023-02-04T04:17:45.669Z,97316.22
2023-02-04T04:18:47.653Z,97302.50
2023-02-04T04:19:49.932Z,97341.09
2023-02-04T04:20:51.802Z,97362.03
2023-02-04T04:21:53.678Z,97315.56
2023-02-04T04:22:55.605Z,97316.41
2023-02-04T04:23:57.517Z,97309.75
2023-02-04T04:24:59.378Z,97373.50
2023-02-04T04:26:01.340Z,97355.41
2023-02-04T04:27:03.353Z,97350.25
2023-02-04T04:28:05.388Z,97359.63
2023-02-04T04:29:07.287Z,97335.22
2023-02-04T04:30:09.536Z,97346.16
2023-02-04T04:31:11.465Z,97361.63
2023-02-04T04:32:13.334Z,97360.97
2023-02-04T04:33:15.345Z,97347.25
2023-02-04T04:34:17.286Z,97316.03
2023-02-04T04:35:19.208Z,97385.88
2023-02-04T04:36:21.207Z,97408.19
2023-02-04T04:37:23.133Z,97360.06
2023-02-04T04:38:25.009Z,97307.66
2023-02-04T04:39:26.939Z,97348.94
2023-02-04T04:40:28.875Z,97361.56
2023-02-04T04:41:30.817Z,97366.22
2023-02-04T04:42:32.765Z,97349.09
2023-02-04T04:43:34.598Z,97325.84
2023-02-04T04:44:36.602Z,97340.69
2023-02-04T04:45:38.663Z,97363.25
2023-02-04T04:46:41.050Z,97350.34
2023-02-04T04:47:42.990Z,97333.53
2023-02-04T04:48:44.918Z,97391.28
2023-02-04T04:49:46.763Z,97357.59
2023-02-04T04:50:48.602Z,97332.59
2023-02-04T04:51:50.501Z,97383.69
2023-02-04T04:52:52.321Z,97385.47
2023-02-04T04:53:54.422Z,97375.50
2023-02-04T04:54:56.307Z,97375.22
2023-02-04T04:55:58.058Z,97379.41
2023-02-04T04:56:59.908Z,97372.63
2023-02-04T04:58:01.734Z,97372.09
2023-02-04T04:59:03.780Z,97374.81
2023-02-04T05:00:06.770Z,97354.19
2023-02-04T05:01:08.748Z,97380.00
2023-02-04T05:02:10.722Z,97405.44
2023-02-04T05:03:12.636Z,97415.91
2023-02-04T05:04:14.481Z,97378.16
2023-02-04T05:05:16.448Z,97309.94
2023-02-04T05:06:18.309Z,97356.63
2023-02-04T05:07:20.147Z,97373.16
2023-02-04T05:08:22.091Z,97364.94
2023-02-04T05:09:24.007Z,97355.16
2023-02-04T05:10:25.930Z,97382.75
2023-02-04T05:11:27.817Z,97356.25
2023-02-04T05:12:29.631Z,97412.69
2023-02-04T05:13:31.627Z,97372.50
2023-02-04T05:14:33.741Z,97382.63
2023-02-04T05:15:35.900Z,97394.59
2023-02-04T05:16:37.958Z,97402.22
2023-02-04T05:17:39.930Z,97385.88
2023-02-04T05:18:42.110Z,97385.88
2023-02-04T05:19:44.030Z,97371.38
2023-02-04T05:20:46.153Z,97384.28
2023-02-04T05:21:48.051Z,97415.78
2023-02-04T05:22:49.925Z,97423.38
2023-02-04T05:23:51.817Z,97387.06
2023-02-04T05:24:53.744Z,97386.28
2023-02-04T05:25:55.692Z,97372.31
2023-02-04T05:26:57.589Z,97375.88
2023-02-04T05:27:59.646Z,97420.56
2023-02-04T05:29:01.612Z,97410.91
2023-02-04T05:30:03.462Z,97393.34
2023-02-04T05:31:05.392Z,97411.41
2023-02-04T05:32:07.307Z,97430.97
2023-02-04T05:33:09.203Z,97392.09
2023-02-04T05:34:11.010Z,97443.72
2023-02-04T05:35:12.853Z,97422.56
2023-02-04T05:36:14.748Z,97387.53
2023-02-04T05:37:17.812Z,97378.00
2023-02-04T05:38:19.753Z,97422.03
2023-02-04T05:39:21.703Z,97401.22
2023-02-04T05:40:23.609Z,97411.41
2023-02-04T05:41:25.430Z,97425.31
2023-02-04T05:42:27.263Z,97390.91
2023-02-04T05:43:29.285Z,97416.19
2023-02-04T05:44:31.163Z,97424.78
2023-02-04T05:45:33.188Z,97432.34
2023-02-04T05:46:35.121Z,97410.09
2023-02-04T05:47:36.965Z,97423.44
2023-02-04T05:48:40.438Z,97425.19
2023-02-04T05:49:42.342Z,97417.75
2023-02-04T05:50:44.090Z,97436.09
2023-02-04T05:51:46.415Z,97449.00
2023-02-04T05:52:48.558Z,97431.78
2023-02-04T05:53:50.586Z,97460.44
2023-02-04T05:54:52.676Z,97443.34
2023-02-04T05:55:54.455Z,97497.97
2023-02-04T05:56:56.553Z,97437.94
2023-02-04T05:57:58.761Z,97463.59
2023-02-04T05:59:00.592Z,97470.41
2023-02-04T06:00:02.677Z,97445.41
2023-02-04T06:01:05.183Z,97495.47
2023-02-04T06:02:07.092Z,97463.91
2023-02-04T06:03:08.982Z,97441.53
2023-02-04T06:04:10.962Z,97451.84
2023-02-04T06:05:13.000Z,97473.44
2023-02-04T06:06:14.955Z,97498.44
2023-02-04T06:07:18.097Z,97486.66
2023-02-04T06:08:20.048Z,97492.75
2023-02-04T06:09:22.817Z,97484.34
2023-02-04T06:10:25.032Z,97481.91
2023-02-04T06:11:27.496Z,97477.31
2023-02-04T06:12:29.765Z,97463.25
2023-02-04T06:13:31.626Z,97489.31
2023-02-04T06:14:33.514Z,97478.19
2023-02-04T06:15:35.490Z,97472.50
2023-02-04T06:16:37.386Z,97491.78
2023-02-04T06:17:39.451Z,97531.59
2023-02-04T06:18:41.395Z,97543.66
2023-02-04T06:19:43.249Z,97516.25
2023-02-04T06:20:45.089Z,97499.13
2023-02-04T06:21:47.012Z,97556.72
2023-02-04T06:22:51.973Z,97545.56
2023-02-04T06:23:53.932Z,97567.72
2023-02-04T06:24:55.803Z,97532.66
2023-02-04T06:25:57.704Z,97565.41
2023-02-04T06:26:59.504Z,97582.22
2023-02-04T06:28:01.416Z,97566.31
2023-02-04T06:29:03.425Z,97573.00
2023-02-04T06:30:05.451Z,97568.75
2023-02-04T06:31:09.560Z,97560.22
2023-02-04T06:32:11.481Z,97556.16
2023-02-04T06:33:13.363Z,97605.31
2023-02-04T06:34:15.622Z,97586.59
2023-02-04T06:35:18.186Z,97612.50
2023-02-04T06:36:20.131Z,97609.41
2023-02-04T06:37:24.217Z,97633.03
2023-02-04T06:38:26.266Z,97627.50
2023-02-04T06:39:28.128Z,97593.97
2023-02-04T06:40:30.231Z,97605.88
2023-02-04T06:41:32.283Z,97645.13
2023-02-04T06:42:34.170Z,97639.44
2023-02-04T06:43:36.077Z,97643.09
2023-02-04T06:44:38.007Z,97649.63
2023-02-04T06:45:39.961Z,97664.41
2023-02-04T06:46:41.993Z,97644.59
2023-02-04T06:47:43.910Z,97666.31
2023-02-04T06:48:45.760Z,97674.84
2023-02-04T06:49:47.633Z,97688.91
2023-02-04T06:50:49.652Z,97698.94
2023-02-04T06:51:52.041Z,97703.00
2023-02-04T06:52:53.904Z,97720.06
2023-02-04T06:53:55.725Z,97697.81
2023-02-04T06:54:57.576Z,97722.63
2023-02-04T06:55:59.471Z,97726.81
2023-02-04T06:57:06.941Z,97744.72
2023-02-04T06:58:08.889Z,97735.38
2023-02-04T06:59:10.965Z,97744.84
2023-02-04T07:00:13.215Z,97741.22
2023-02-04T07:01:15.178Z,97756.28
2023-02-04T07:02:17.232Z,97753.47
2023-02-04T07:03:19.201Z,97763.50
2023-02-04T07:04:21.094Z,97765.13
2023-02-04T07:05:22.998Z,97771.78
2023-02-04T07:06:24.933Z,97774.34
2023-02-04T07:07:27.091Z,97773.28
2023-02-04T07:08:28.992Z,97780.75
2023-02-04T07:09:30.942Z,97778.72
2023-02-04T07:10:33.389Z,97783.06
2023-02-04T07:11:35.505Z,97787.53
2023-02-04T07:12:37.635Z,97779.22
2023-02-04T07:13:39.518Z,97788.63
2023-02-04T07:14:41.366Z,97791.06
2023-02-04T07:15:43.189Z,97788.72
2023-02-04T07:16:45.118Z,97810.16
2023-02-04T07:17:47.035Z,97801.44
2023-02-04T07:18:48.912Z,97826.41
2023-02-04T07:19:50.821Z,97825.72
2023-02-04T07:20:55.746Z,97838.59
2023-02-04T07:21:57.769Z,97836.94
2023-02-04T07:22:59.765Z,97852.69
2023-02-04T07:24:01.640Z,97860.25
2023-02-04T07:25:03.549Z,97865.69
2023-02-04T07:26:05.472Z,97865.22
2023-02-04T07:27:07.354Z,97875.00
2023-02-04T07:28:09.317Z,97871.72
2023-02-04T07:29:17.450Z,97876.88
2023-02-04T07:30:22.731Z,97883.66
2023-02-04T07:31:24.704Z,97886.91
2023-02-04T07:32:28.182Z,97891.00
2023-02-04T07:33:30.069Z,97895.91
2023-02-04T07:34:32.162Z,97902.38
2023-02-04T07:35:34.066Z,97903.06
2023-02-04T07:36:35.965Z,97903.88
2023-02-04T07:37:37.810Z,97896.13
2023-02-04T07:38:39.691Z,97901.78
2023-02-04T07:39:41.662Z,97897.59
2023-02-04T07:40:43.792Z,97916.56
2023-02-04T07:41:45.908Z,97921.47
2023-02-04T07:42:47.724Z,97920.28
2023-02-04T07:43:49.606Z,97928.00
2023-02-04T07:44:51.545Z,97922.75
2023-02-04T07:45:53.471Z,97931.28
2023-02-04T07:46:55.373Z,97935.75
2023-02-04T07:47:57.257Z,97945.78
2023-02-04T07:48:59.243Z,97938.88
2023-02-04T07:50:01.243Z,97939.69
2023-02-04T07:51:03.280Z,97947.31
2023-02-04T07:52:05.248Z,97951.63
2023-02-04T07:53:07.075Z,97959.63
2023-02-04T07:54:08.949Z,97975.06
2023-02-04T07:55:11.153Z,97970.59
2023-02-04T07:56:12.958Z,97962.75
2023-02-04T07:57:14.951Z,97975.06
2023-02-04T07:58:17.031Z,97970.16
2023-02-04T07:59:18.968Z,97973.41
2023-02-04T08:00:20.943Z,97966.38
2023-02-04T08:01:22.816Z,97976.44
2023-02-04T08:02:24.805Z,97972.81
2023-02-04T08:03:26.743Z,97985.00
2023-02-04T08:04:28.678Z,97989.06
2023-02-04T08:05:30.748Z,97983.09
2023-02-04T08:06:32.701Z,97996.69
2023-02-04T08:07:34.744Z,97985.81
2023-02-04T08:08:36.635Z,97985.25
2023-02-04T08:09:38.491Z,97988.25
2023-02-04T08:10:40.352Z,97993.19
2023-02-04T08:11:42.246Z,98004.28
2023-02-04T08:12:44.169Z,98007.56
2023-02-04T08:13:46.055Z,98007.56
2023-02-04T08:14:47.971Z,98002.19
2023-02-04T08:15:49.960Z,97997.03
2023-02-04T08:16:51.880Z,98007.69
2023-02-04T08:17:53.814Z,98004.28
2023-02-04T08:18:55.760Z,98014.59
2023-02-04T08:19:58.132Z,98006.88
2023-02-04T08:21:01.724Z,98021.53
2023-02-04T08:22:03.583Z,98012.84
2023-02-04T08:23:05.546Z,98017.97
2023-02-04T08:24:07.468Z,98020.44
2023-02-04T08:25:11.671Z,98038.47
2023-02-04T08:26:13.580Z,98035.91
2023-02-04T08:27:15.444Z,98027.09
2023-02-04T08:28:17.474Z,98033.31
2023-02-04T08:29:19.417Z,98038.25
2023-02-04T08:30:21.352Z,98042.22
2023-02-04T08:31:23.393Z,98053.06
2023-02-04T08:32:27.169Z,98046.19
2023-02-04T08:33:29.143Z,98058.09
2023-02-04T08:34:31.546Z,98042.75
2023-02-04T08:35:33.455Z,98055.44
2023-02-04T08:36:35.298Z,98051.25
2023-02-04T08:37:37.091Z,98059.09
2023-02-04T08:38:39.004Z,98073.75
2023-02-04T08:39:44.669Z,98073.47
2023-02-04T08:40:46.623Z,98065.63
2023-02-04T08:41:49.547Z,98069.97
2023-02-04T08:42:51.393Z,98084.84
2023-02-04T08:43:53.467Z,98084.63
2023-02-04T08:44:55.648Z,98080.50
2023-02-04T08:45:57.534Z,98081.09
2023-02-04T08:46:59.432Z,98093.88
2023-02-04T08:48:01.358Z,98099.81
2023-02-04T08:49:03.366Z,98089.19
2023-02-04T08:50:05.291Z,98091.88
2023-02-04T08:51:07.213Z,98097.84
2023-02-04T08:52:09.189Z,98089.09
2023-02-04T08:53:11.114Z,98097.97
2023-02-04T08:54:13.040Z,98099.50
2023-02-04T08:55:16.164Z,98100.31
2023-02-04T08:56:20.689Z,98106.44
2023-02-04T08:57:22.644Z,98107.22
2023-02-04T08:58:24.668Z,98109.94
2023-02-04T08:59:26.620Z,98101.97
2023-02-04T09:00:28.809Z,98107.66
2023-02-04T09:01:33.123Z,98115.97
2023-02-04T09:02:35.014Z,98115.97
2023-02-04T09:03:37.474Z,98114.38
2023-02-04T09:04:39.453Z,98110.38
2023-02-04T09:05:41.291Z,98117.66
2023-02-04T09:06:44.034Z,98120.59
2023-02-04T09:07:46.398Z,98125.63
2023-02-04T09:08:48.282Z,98128.19
2023-02-04T09:09:50.190Z,98125.63
2023-02-04T09:10:52.130Z,98133.34
2023-02-04T09:11:54.003Z,98117.78
2023-02-04T09:12:56.518Z,98133.81
2023-02-04T09:13:58.339Z,98132.03
2023-02-04T09:15:00.272Z,98133.59
2023-02-04T09:16:02.161Z,98134.50
2023-02-04T09:17:06.045Z,98132.63
2023-02-04T09:18:19.454Z,98139.44
2023-02-04T09:19:25.672Z,98130.31
2023-02-04T09:20:29.545Z,98136.50
2023-02-04T09:21:32.076Z,98141.44
2023-02-04T09:22:33.990Z,98132.63
2023-02-04T09:23:35.994Z,98136.97
2023-02-04T09:24:37.822Z,98150.44
2023-02-04T09:25:40.302Z,98149.06
2023-02-04T09:26:42.144Z,98157.16
2023-02-04T09:27:44.071Z,98156.56
2023-02-04T09:28:46.078Z,98158.66
2023-02-04T09:29:47.954Z,98172.84
2023-02-04T09:30:49.843Z,98176.47
2023-02-04T09:31:51.783Z,98179.19
2023-02-04T09:32:53.699Z,98180.22
2023-02-04T09:33:55.706Z,98171.91
2023-02-04T09:34:57.596Z,98176.25
2023-02-04T09:35:59.490Z,98185.03
2023-02-04T09:37:01.343Z,98193.81
2023-02-04T09:38:03.356Z,98192.25
2023-02-04T09:39:06.393Z,98200.94
2023-02-04T09:40:08.667Z,98201.75
2023-02-04T09:41:12.148Z,98204.91
2023-02-04T09:42:15.239Z,98205.72
2023-02-04T09:43:20.811Z,98209.13
2023-02-04T09:44:25.147Z,98218.50
2023-02-04T09:45:28.769Z,98224.56
2023-02-04T09:46:31.721Z,98217.44
2023-02-04T09:47:33.668Z,98225.88
2023-02-04T09:48:35.467Z,98225.63
2023-02-04T09:49:37.460Z,98228.91
2023-02-04T09:50:39.373Z,98229.00
2023-02-04T09:51:42.436Z,98229.25
2023-02-04T09:52:44.606Z,98235.47
2023-02-04T09:53:47.845Z,98235.22
2023-02-04T09:54:49.904Z,98235.47
2023-02-04T09:55:52.115Z,98242.03
2023-02-04T09:56:54.002Z,98240.00
2023-02-04T09:57:55.881Z,98247.88
2023-02-04T09:58:57.817Z,98246.47
2023-02-04T09:59:59.736Z,98255.13
2023-02-04T10:01:21.447Z,98258.41
2023-02-04T10:02:26.947Z,98259.81
2023-02-04T10:03:28.833Z,98255.25
2023-02-04T10:04:30.886Z,98255.00
2023-02-04T10:05:34.635Z,98250.44
2023-02-04T10:06:37.701Z,98254.31
2023-02-04T10:07:39.625Z,98264.72
2023-02-04T10:08:42.401Z,98262.41
2023-02-04T10:09:44.336Z,98263.91
2023-02-04T10:10:48.269Z,98260.28
2023-02-04T10:11:50.405Z,98255.63
2023-02-04T10:12:53.889Z,98262.38
2023-02-04T10:13:56.700Z,98266.13
2023-02-04T10:15:00.639Z,98269.56
2023-02-04T10:16:04.235Z,98261.59
2023-02-04T10:17:06.261Z,98272.59
2023-02-04T10:18:08.872Z,98268.03
2023-02-04T10:19:16.146Z,98278.94
2023-02-04T10:20:19.679Z,98271.06
2023-02-04T10:21:22.990Z,98274.94
2023-02-04T10:22:24.962Z,98272.03
2023-02-04T10:23:26.798Z,98273.75
2023-02-04T10:24:30.917Z,98275.53
2023-02-04T10:25:32.755Z,98262.63
2023-02-04T10:26:34.624Z,98259.84
2023-02-04T10:27:37.383Z,98265.00
2023-02-04T10:28:40.557Z,98269.09
2023-02-04T10:29:42.743Z,98265.91
2023-02-04T10:30:44.708Z,98272.59
2023-02-04T10:31:48.593Z,98262.06
2023-02-04T10:32:50.764Z,98261.25
2023-02-04T10:34:02.466Z,98266.16
2023-02-04T10:35:04.483Z,98265.94
2023-02-04T10:36:06.879Z,98259.00
2023-02-04T10:37:18.322Z,98262.38
2023-02-04T10:38:20.702Z,98261.31
2023-02-04T10:39:23.919Z,98258.91
2023-02-04T10:40:30.500Z,98254.66
2023-02-04T10:41:34.697Z,98261.81
2023-02-04T10:42:36.598Z,98261.00
2023-02-04T10:43:39.417Z,98258.31
2023-02-04T10:44:46.594Z,98255.63
2023-02-04T10:45:55.399Z,98259.13
2023-02-04T10:47:01.683Z,98258.19
2023-02-04T10:48:04.333Z,98256.16
2023-02-04T10:49:17.138Z,98249.50
2023-02-04T10:50:20.473Z,98255.84
2023-02-04T10:51:22.365Z,98257.09
2023-02-04T10:52:27.206Z,98255.22
2023-02-04T10:53:47.503Z,98259.56
2023-02-04T10:54:49.409Z,98254.88
2023-02-04T10:55:51.714Z,98251.50
2023-02-04T10:56:53.516Z,98253.94
2023-02-04T10:57:55.449Z,98248.44
2023-02-04T10:58:57.355Z,98242.31
2023-02-04T11:00:00.439Z,98239.63
2023-02-04T11:01:02.399Z,98247.00
2023-02-04T11:02:24.158Z,98237.69
2023-02-04T11:03:27.167Z,98245.28
2023-02-04T11:04:29.109Z,98247.28
2023-02-04T11:05:34.334Z,98246.50
2023-02-04T11:06:36.189Z,98243.44
2023-02-04T11:07:38.065Z,98249.56
2023-02-04T11:08:40.936Z,98246.50
2023-02-04T11:09:43.793Z,98247.47
2023-02-04T11:10:45.979Z,98246.50
2023-02-04T11:11:49.088Z,98246.50
2023-02-04T11:12:53.875Z,98241.94
2023-02-04T11:13:56.127Z,98243.31
2023-02-04T11:14:58.730Z,98242.00
2023-02-04T11:16:09.683Z,98243.50
2023-02-04T11:17:20.235Z,98239.34
2023-02-04T11:18:22.002Z,98252.25
2023-02-04T11:19:39.463Z,98250.75
2023-02-04T11:20:41.539Z,98244.91
2023-02-04T11:21:45.597Z,98237.84
2023-02-04T11:22:53.948Z,98241.91
2023-02-04T11:24:16.955Z,98243.31
2023-02-04T11:25:35.297Z,98245.22
2023-02-04T11:26:37.331Z,98244.13
2023-02-04T11:27:40.058Z,98250.75
2023-02-04T11:28:49.520Z,98244.88
2023-02-04T11:29:51.436Z,98242.03
2023-02-04T11:31:01.116Z,98245.59
2023-02-04T11:32:05.124Z,98243.81
2023-02-04T11:33:07.293Z,98240.44
2023-02-04T11:34:24.188Z,98250.59
2023-02-04T11:35:27.708Z,98248.41
2023-02-04T11:36:30.158Z,98245.00
2023-02-04T11:37:36.527Z,98240.06
2023-02-04T11:38:39.147Z,98240.06
2023-02-04T11:39:50.425Z,98236.69
2023-02-04T11:40:56.590Z,98238.34
2023-02-04T11:42:01.669Z,98245.00
2023-02-04T11:43:09.416Z,98242.44
2023-02-04T11:44:11.849Z,98247.81
2023-02-04T11:45:18.665Z,98254.06
2023-02-04T11:46:20.759Z,98260.50
2023-02-04T11:47:25.239Z,98253.97
2023-02-04T11:48:27.279Z,98256.09
2023-02-04T11:49:29.296Z,98258.53
2023-02-04T11:50:40.013Z,98259.50
2023-02-04T11:51:41.859Z,98252.69
2023-02-04T11:52:43.906Z,98254.44
2023-02-04T11:53:51.042Z,98251.97
2023-02-04T11:54:53.760Z,98251.88
2023-02-04T11:55:55.658Z,98251.06
2023-02-04T11:57:00.019Z,98244.03
2023-02-04T11:58:02.077Z,98253.38
2023-02-04T11:59:04.015Z,98246.38
2023-02-04T12:00:06.116Z,98251.53
2023-02-04T12:01:16.979Z,98252.06
2023-02-04T12:02:26.546Z,98259.69
2023-02-04T12:03:34.576Z,98259.69
2023-02-04T12:04:36.513Z,98262.31
2023-02-04T12:05:42.362Z,98254.13
2023-02-04T12:06:44.411Z,98257.28
2023-02-04T12:07:47.135Z,98255.53
2023-02-04T12:08:48.976Z,98253.06
2023-02-04T12:09:50.870Z,98248.72
2023-02-04T12:11:12.571Z,98262.19
2023-02-04T12:12:23.270Z,98259.13
2023-02-04T12:13:25.751Z,98261.00
2023-02-04T12:14:35.627Z,98257.84
2023-02-04T12:15:37.546Z,98262.56
2023-02-04T12:16:49.845Z,98259.16
2023-02-04T12:18:01.999Z,98253.44